createdAt,value
2019-02-24T00:02:52.472Z,103801.37
2019-02-24T00:05:56.363Z,103808.55
2019-02-24T00:09:00.188Z,103806.97
2019-02-24T00:12:04.088Z,103810.79
2019-02-24T00:15:08.117Z,103806.70
2019-02-24T00:18:11.931Z,103802.00
2019-02-24T00:21:15.806Z,103802.64
2019-02-24T00:24:19.745Z,103812.01
2019-02-24T00:27:23.577Z,103816.84
2019-02-24T00:30:27.413Z,103821.16
2019-02-24T00:33:31.250Z,103816.25
2019-02-24T00:36:35.099Z,103817.34
2019-02-24T00:39:38.952Z,103822.19
2019-02-24T00:42:42.783Z,103825.86
2019-02-24T00:45:46.614Z,103821.23
2019-02-24T00:48:50.451Z,103816.74
2019-02-24T00:51:54.272Z,103806.50
2019-02-24T00:54:58.073Z,103803.88
2019-02-24T00:58:01.902Z,103802.19
2019-02-24T01:01:05.723Z,103810.73
2019-02-24T01:04:09.677Z,103808.05
2019-02-24T01:07:13.564Z,103801.02
2019-02-24T01:10:17.410Z,103802.75
2019-02-24T01:13:21.341Z,103805.75
2019-02-24T01:16:25.252Z,103807.80
2019-02-24T01:19:29.105Z,103796.04
2019-02-24T01:22:32.937Z,103797.45
2019-02-24T01:25:36.843Z,103801.19
2019-02-24T01:28:40.698Z,103799.89
2019-02-24T01:31:44.514Z,103789.75
2019-02-24T01:34:48.361Z,103783.53
2019-02-24T01:37:52.270Z,103783.25
2019-02-24T01:40:56.072Z,103784.06
2019-02-24T01:43:59.893Z,103772.62
2019-02-24T01:47:03.689Z,103762.98
2019-02-24T01:50:08.452Z,103765.59
2019-02-24T01:53:12.254Z,103772.62
2019-02-24T01:56:16.103Z,103755.74
2019-02-24T01:59:19.954Z,103755.50
2019-02-24T02:02:23.840Z,103754.69
2019-02-24T02:05:27.693Z,103750.06
2019-02-24T02:08:31.590Z,103742.61
2019-02-24T02:11:35.425Z,103736.18
2019-02-24T02:14:39.323Z,103732.36
2019-02-24T02:17:43.178Z,103738.09
2019-02-24T02:20:47.130Z,103738.58
2019-02-24T02:23:50.924Z,103719.86
2019-02-24T02:26:55.319Z,103723.08
2019-02-24T02:29:59.141Z,103712.52
2019-02-24T02:33:02.969Z,103694.82
2019-02-24T02:36:06.808Z,103703.83
2019-02-24T02:39:10.609Z,103717.38
2019-02-24T02:42:14.431Z,103712.66
2019-02-24T02:45:18.309Z,103719.33
2019-02-24T02:48:22.209Z,103705.95
2019-02-24T02:51:26.070Z,103699.09
2019-02-24T02:54:29.891Z,103701.42
2019-02-24T02:57:33.782Z,103697.50
2019-02-24T03:00:37.622Z,103693.97
2019-02-24T03:03:41.446Z,103686.84
2019-02-24T03:06:53.140Z,103684.55
2019-02-24T03:09:57.030Z,103684.80
2019-02-24T03:13:00.863Z,103687.95
2019-02-24T03:16:04.833Z,103691.16
2019-02-24T03:19:08.715Z,103688.87
2019-02-24T03:22:12.563Z,103675.80
2019-02-24T03:25:16.384Z,103677.92
2019-02-24T03:28:20.299Z,103681.34
2019-02-24T03:31:24.114Z,103665.67
2019-02-24T03:34:27.937Z,103662.24
2019-02-24T03:37:31.855Z,103648.47
2019-02-24T03:40:35.944Z,103655.00
2019-02-24T03:43:39.844Z,103645.44
2019-02-24T03:46:43.753Z,103645.92
2019-02-24T03:49:47.546Z,103647.76
2019-02-24T03:52:51.451Z,103639.92
2019-02-24T03:55:57.530Z,103633.07
2019-02-24T03:59:01.166Z,103629.81
2019-02-24T04:02:05.034Z,103628.28
2019-02-24T04:05:08.995Z,103629.17
2019-02-24T04:08:12.817Z,103638.80
2019-02-24T04:11:16.692Z,103655.25
2019-02-24T04:14:20.552Z,103657.27
2019-02-24T04:17:25.756Z,103654.31
2019-02-24T04:20:29.541Z,103649.41
2019-02-24T04:23:33.482Z,103639.60
2019-02-24T04:26:37.300Z,103642.53
2019-02-24T04:29:41.178Z,103647.38
2019-02-24T04:32:44.961Z,103662.42
2019-02-24T04:35:48.823Z,103676.59
2019-02-24T04:38:52.661Z,103683.55
2019-02-24T04:41:56.520Z,103676.06
2019-02-24T04:45:00.316Z,103672.88
2019-02-24T04:48:04.287Z,103684.84
2019-02-24T04:51:08.148Z,103684.24
2019-02-24T04:54:11.969Z,103687.98
2019-02-24T04:57:15.883Z,103686.08
2019-02-24T05:00:19.722Z,103681.59
2019-02-24T05:03:23.621Z,103687.63
2019-02-24T05:06:27.458Z,103679.61
2019-02-24T05:09:31.299Z,103682.01
2019-02-24T05:12:35.109Z,103687.23
2019-02-24T05:15:38.967Z,103681.33
2019-02-24T05:18:42.807Z,103677.73
2019-02-24T05:21:46.689Z,103671.52
2019-02-24T05:24:50.498Z,103677.45
2019-02-24T05:27:54.446Z,103679.48
2019-02-24T05:30:58.347Z,103690.73
2019-02-24T05:34:02.189Z,103683.40
2019-02-24T05:37:06.044Z,103690.81
2019-02-24T05:40:10.006Z,103700.05
2019-02-24T05:43:13.848Z,103696.45
2019-02-24T05:46:17.675Z,103700.86
2019-02-24T05:49:21.518Z,103712.19
2019-02-24T05:52:25.352Z,103704.59
2019-02-24T05:55:29.175Z,103694.25
2019-02-24T05:58:32.977Z,103698.17
2019-02-24T06:01:36.842Z,103671.08
2019-02-24T06:04:40.667Z,103682.50
2019-02-24T06:07:44.554Z,103671.68
2019-02-24T06:10:48.428Z,103676.59
2019-02-24T06:13:52.301Z,103695.56
2019-02-24T06:16:56.088Z,103692.45
2019-02-24T06:19:59.937Z,103687.05
2019-02-24T06:23:03.775Z,103690.47
2019-02-24T06:26:07.644Z,103690.97
2019-02-24T06:29:11.464Z,103691.84
2019-02-24T06:32:15.282Z,103697.28
2019-02-24T06:35:19.218Z,103702.28
2019-02-24T06:38:23.112Z,103699.11
2019-02-24T06:41:26.932Z,103690.47
2019-02-24T06:44:30.781Z,103728.67
2019-02-24T06:47:34.605Z,103750.64
2019-02-24T06:50:52.935Z,103750.79
2019-02-24T06:53:56.827Z,103730.11
2019-02-24T06:57:00.689Z,103716.75
2019-02-24T07:00:13.556Z,103730.80
2019-02-24T07:03:10.343Z,103714.02
2019-02-24T07:06:14.227Z,103693.34
2019-02-24T07:09:19.146Z,103684.39
2019-02-24T07:12:23.107Z,103698.30
2019-02-24T07:15:26.901Z,103707.84
2019-02-24T07:18:30.758Z,103715.14
2019-02-24T07:21:34.672Z,103734.31
2019-02-24T07:24:38.498Z,103739.58
2019-02-24T07:27:42.375Z,103729.24
2019-02-24T07:30:46.243Z,103728.12
2019-02-24T07:33:50.343Z,103730.20
2019-02-24T07:36:54.177Z,103740.34
2019-02-24T07:40:00.761Z,103743.30
2019-02-24T07:43:04.833Z,103749.10
2019-02-24T07:46:11.968Z,103754.69
2019-02-24T07:49:15.921Z,103750.66
2019-02-24T07:52:25.417Z,103730.10
2019-02-24T07:55:32.535Z,103739.81
2019-02-24T07:58:42.592Z,103733.80
2019-02-24T08:01:42.680Z,103738.94
2019-02-24T08:04:46.690Z,103728.39
2019-02-24T08:07:50.667Z,103726.54
2019-02-24T08:10:54.611Z,103727.80
2019-02-24T08:13:58.435Z,103715.96
2019-02-24T08:17:05.395Z,103708.05
2019-02-24T08:20:16.088Z,103709.56
2019-02-24T08:23:20.607Z,103707.78
2019-02-24T08:26:28.330Z,103699.59
2019-02-24T08:29:33.313Z,103704.19
2019-02-24T08:32:40.125Z,103697.66
2019-02-24T09:00:16.081Z,103741.72
2019-02-24T09:06:57.961Z,103746.27
2019-02-24T09:10:02.834Z,103748.36
2019-02-24T09:13:06.919Z,103752.70
2019-02-24T09:16:10.812Z,103754.00
2019-02-24T09:19:14.775Z,103757.11
2019-02-24T09:22:19.229Z,103749.77
2019-02-24T09:25:23.139Z,103744.48
2019-02-24T09:28:28.915Z,103734.77
2019-02-24T09:31:32.798Z,103726.06
2019-02-24T09:34:36.727Z,103731.84
2019-02-24T09:37:40.813Z,103725.58
2019-02-24T09:40:44.703Z,103711.00
2019-02-24T09:43:48.577Z,103712.79
2019-02-24T09:46:53.280Z,103705.95
2019-02-24T09:49:57.078Z,103706.58
2019-02-24T09:53:00.986Z,103701.55
2019-02-24T09:56:04.854Z,103710.63
2019-02-24T09:59:08.692Z,103713.66
2019-02-24T10:02:12.683Z,103720.27
2019-02-24T10:05:16.677Z,103712.98
2019-02-24T10:08:20.582Z,103717.80
2019-02-24T10:11:24.552Z,103715.25
2019-02-24T10:14:28.470Z,103720.23
2019-02-24T10:17:32.370Z,103732.55
2019-02-24T10:20:36.284Z,103735.94
2019-02-24T10:23:40.165Z,103731.77
2019-02-24T10:26:44.074Z,103731.81
2019-02-24T10:29:47.924Z,103732.58
2019-02-24T10:32:52.527Z,103725.59
2019-02-24T10:35:56.455Z,103725.83
2019-02-24T10:39:00.305Z,103717.78
2019-02-24T10:42:04.155Z,103726.08
2019-02-24T10:45:10.002Z,103737.61
2019-02-24T10:48:14.466Z,103729.44
2019-02-24T10:51:18.343Z,103738.88
2019-02-24T10:54:22.140Z,103738.80
2019-02-24T10:57:25.972Z,103744.16
2019-02-24T11:00:29.862Z,103745.58
2019-02-24T11:03:35.453Z,103743.25
2019-02-24T11:06:39.239Z,103730.29
2019-02-24T11:09:43.059Z,103733.55
2019-02-24T11:12:46.888Z,103737.75
2019-02-24T11:15:50.726Z,103733.50
2019-02-24T11:18:54.526Z,103742.56
2019-02-24T11:21:58.428Z,103739.58
2019-02-24T11:25:02.258Z,103730.44
2019-02-24T11:28:06.142Z,103736.55
2019-02-24T11:31:14.158Z,103738.64
2019-02-24T11:34:23.439Z,103738.95
2019-02-24T11:37:52.978Z,103733.55
2019-02-24T11:40:59.080Z,103726.69
2019-02-24T11:44:04.029Z,103739.90
2019-02-24T11:47:12.607Z,103730.09
2019-02-24T11:50:18.061Z,103723.41
2019-02-24T11:53:23.517Z,103719.22
2019-02-24T11:56:28.863Z,103710.80
2019-02-24T11:59:34.498Z,103723.12
2019-02-24T12:02:41.726Z,103719.13
2019-02-24T12:05:47.094Z,103720.02
2019-02-24T12:08:52.007Z,103724.00
2019-02-24T12:11:57.244Z,103716.58
2019-02-24T12:15:03.003Z,103719.69
2019-02-24T12:18:08.389Z,103718.48
2019-02-24T12:21:18.825Z,103713.48
2019-02-24T12:24:24.285Z,103709.90
2019-02-24T12:27:29.493Z,103702.39
2019-02-24T12:30:34.890Z,103692.08
2019-02-24T12:33:40.511Z,103695.08
2019-02-24T12:36:45.578Z,103696.35
2019-02-24T12:39:50.421Z,103698.05
2019-02-24T12:42:54.904Z,103706.53
2019-02-24T12:46:04.040Z,103704.78
2019-02-24T12:49:09.788Z,103699.03
2019-02-24T12:52:15.333Z,103698.75
2019-02-24T12:55:20.841Z,103687.98
2019-02-24T12:58:25.991Z,103693.44
2019-02-24T13:01:31.526Z,103691.15
2019-02-24T13:04:38.335Z,103690.32
2019-02-24T13:07:43.500Z,103681.44
2019-02-24T13:10:48.825Z,103688.72
2019-02-24T13:13:54.270Z,103691.37
2019-02-24T13:16:59.636Z,103689.30
2019-02-24T13:20:04.673Z,103700.19
2019-02-24T13:23:11.541Z,103694.75
2019-02-24T13:26:16.992Z,103689.22
2019-02-24T13:29:20.944Z,103689.71
2019-02-24T13:32:27.080Z,103697.53
2019-02-24T13:35:30.937Z,103690.66
2019-02-24T13:38:34.784Z,103690.96
2019-02-24T13:41:38.682Z,103683.06
2019-02-24T13:44:42.491Z,103688.42
2019-02-24T13:47:46.499Z,103693.36
2019-02-24T13:50:50.419Z,103682.95
2019-02-24T13:53:54.241Z,103696.44
2019-02-24T13:56:58.136Z,103703.33
2019-02-24T14:00:01.996Z,103692.60
2019-02-24T14:03:05.832Z,103695.33
2019-02-24T14:06:09.644Z,103687.42
2019-02-24T14:09:13.831Z,103695.78
2019-02-24T14:12:17.721Z,103699.31
2019-02-24T14:15:21.609Z,103705.38
2019-02-24T14:18:25.526Z,103703.28
2019-02-24T14:21:29.461Z,103706.78
2019-02-24T14:24:33.310Z,103716.08
2019-02-24T14:27:37.352Z,103716.17
2019-02-24T14:30:41.209Z,103724.78
2019-02-24T14:33:45.025Z,103729.19
2019-02-24T14:36:48.846Z,103726.80
2019-02-24T14:39:52.703Z,103716.49
2019-02-24T14:42:56.561Z,103715.75
2019-02-24T14:46:00.498Z,103712.55
2019-02-24T14:49:04.411Z,103712.18
2019-02-24T14:52:08.273Z,103721.34
2019-02-24T14:55:12.353Z,103712.73
2019-02-24T14:58:16.296Z,103709.16
2019-02-24T15:01:20.181Z,103703.02
2019-02-24T15:04:24.016Z,103699.48
2019-02-24T15:07:27.846Z,103700.17
2019-02-24T15:10:31.682Z,103706.67
2019-02-24T15:13:35.507Z,103702.30
2019-02-24T15:16:40.297Z,103701.88
2019-02-24T15:19:44.141Z,103709.25
2019-02-24T15:22:47.948Z,103699.91
2019-02-24T15:25:51.868Z,103698.36
2019-02-24T15:28:55.728Z,103696.01
2019-02-24T15:31:59.545Z,103698.00
2019-02-24T15:35:03.367Z,103700.91
2019-02-24T15:38:07.342Z,103699.12
2019-02-24T15:41:11.162Z,103696.52
2019-02-24T15:44:14.990Z,103692.28
2019-02-24T15:47:18.801Z,103690.03
2019-02-24T15:50:22.713Z,103685.02
2019-02-24T15:53:26.523Z,103695.13
2019-02-24T15:56:31.097Z,103688.02
2019-02-24T15:59:34.908Z,103693.03
2019-02-24T16:02:38.711Z,103690.31
2019-02-24T16:05:42.587Z,103690.38
2019-02-24T16:08:46.394Z,103696.72
2019-02-24T16:11:50.202Z,103694.92
2019-02-24T16:14:54.031Z,103696.59
2019-02-24T16:17:57.877Z,103690.89
2019-02-24T16:21:01.683Z,103685.73
2019-02-24T16:24:05.661Z,103697.71
2019-02-24T16:27:09.452Z,103698.31
2019-02-24T16:30:13.465Z,103693.44
2019-02-24T16:33:17.278Z,103699.17
2019-02-24T16:36:21.109Z,103692.69
2019-02-24T16:39:24.946Z,103693.34
2019-02-24T16:42:28.766Z,103696.11
2019-02-24T16:45:32.661Z,103692.09
2019-02-24T16:48:36.813Z,103691.00
2019-02-24T16:51:40.634Z,103692.16
2019-02-24T16:54:52.496Z,103696.60
2019-02-24T16:57:50.055Z,103700.39
2019-02-24T17:00:53.876Z,103715.89
2019-02-24T17:03:57.682Z,103710.22
2019-02-24T17:07:01.626Z,103709.45
2019-02-24T17:10:06.017Z,103712.12
2019-02-24T17:13:09.853Z,103716.06
2019-02-24T17:16:13.825Z,103715.37
2019-02-24T17:19:17.638Z,103729.15
2019-02-24T17:22:21.444Z,103736.75
2019-02-24T17:25:25.401Z,103744.86
2019-02-24T17:28:29.322Z,103742.26
2019-02-24T17:31:33.157Z,103740.98
2019-02-24T17:34:37.014Z,103742.03
2019-02-24T17:37:40.975Z,103748.45
2019-02-24T17:40:44.827Z,103731.08
2019-02-24T17:43:48.664Z,103742.59
2019-02-24T17:46:52.530Z,103748.02
2019-02-24T17:49:56.331Z,103747.84
2019-02-24T17:53:00.177Z,103755.83
2019-02-24T17:56:04.006Z,103767.77
2019-02-24T17:59:07.834Z,103762.97
2019-02-24T18:02:11.682Z,103761.46
2019-02-24T18:05:15.568Z,103770.58
2019-02-24T18:08:27.899Z,103770.39
2019-02-24T18:11:26.155Z,103771.52
2019-02-24T18:14:29.968Z,103767.34
2019-02-24T18:17:34.230Z,103776.38
2019-02-24T18:20:38.104Z,103771.23
2019-02-24T18:23:41.960Z,103769.57
2019-02-24T18:26:46.071Z,103766.07
2019-02-24T18:29:49.934Z,103771.38
2019-02-24T18:32:54.047Z,103771.55
2019-02-24T18:35:57.863Z,103771.78
2019-02-24T18:39:01.687Z,103773.70
2019-02-24T18:42:05.681Z,103777.48
2019-02-24T18:45:10.087Z,103780.70
2019-02-24T18:48:14.043Z,103780.45
2019-02-24T18:51:17.850Z,103785.08
2019-02-24T18:54:21.873Z,103789.74
2019-02-24T18:57:25.692Z,103783.80
2019-02-24T19:00:29.613Z,103785.20
2019-02-24T19:03:33.549Z,103787.02
2019-02-24T19:06:39.405Z,103788.96
2019-02-24T19:09:43.002Z,103786.95
2019-02-24T19:12:47.006Z,103773.06
2019-02-24T19:15:51.445Z,103776.58
2019-02-24T19:18:55.309Z,103779.91
2019-02-24T19:21:59.255Z,103775.05
2019-02-24T19:25:03.653Z,103778.78
2019-02-24T19:28:07.575Z,103779.34
2019-02-24T19:31:11.430Z,103778.98
2019-02-24T19:34:15.188Z,103771.31
2019-02-24T19:37:19.047Z,103772.01
2019-02-24T19:40:23.355Z,103770.26
2019-02-24T19:43:27.525Z,103780.86
2019-02-24T19:46:31.638Z,103789.97
2019-02-24T19:49:35.699Z,103785.81
2019-02-24T19:52:39.783Z,103788.30
2019-02-24T19:55:43.925Z,103792.59
2019-02-24T19:58:49.115Z,103794.11
2019-02-24T20:01:53.131Z,103790.34
2019-02-24T20:04:57.156Z,103780.03
2019-02-24T20:08:01.110Z,103780.77
2019-02-24T20:11:05.364Z,103784.58
2019-02-24T20:14:09.473Z,103782.64
2019-02-24T20:17:13.816Z,103773.70
2019-02-24T20:20:20.207Z,103773.33
2019-02-24T20:23:24.310Z,103773.05
2019-02-24T20:26:28.385Z,103767.08
2019-02-24T20:29:33.485Z,103759.06
2019-02-24T20:32:37.505Z,103763.39
2019-02-24T20:35:41.554Z,103761.88
2019-02-24T20:38:45.671Z,103750.81
2019-02-24T20:41:50.451Z,103744.81
2019-02-24T20:44:56.030Z,103740.19
2019-02-24T20:48:00.397Z,103748.83
2019-02-24T20:51:04.854Z,103755.94
2019-02-24T20:54:10.266Z,103757.19
2019-02-24T20:57:17.371Z,103748.00
2019-02-24T21:00:24.315Z,103752.77
2019-02-24T21:03:28.643Z,103753.75
2019-02-24T21:06:33.413Z,103754.38
2019-02-24T21:09:37.780Z,103760.12
2019-02-24T21:12:41.922Z,103754.15
2019-02-24T21:15:46.307Z,103750.89
2019-02-24T21:19:03.574Z,103745.50
2019-02-24T21:22:07.975Z,103750.26
2019-02-24T21:25:12.287Z,103762.41
2019-02-24T21:28:16.715Z,103772.89
